Time;durP1;ratioP1;P1;durP2;ratioP2;P2;SDS_P1;SDS_P2;PMS_P1;PMS_P2;Temp;Humidity;BMP_temperature;BMP_pressure;BME280_temperature;BME280_humidity;BME280_pressure;Samples;Min_cycle;Max_cycle;Signal;HPM_P1;HPM_P2
2022/10/24 00:02:05;;;;;;;;;2.00;0.25;;;;;18.23;60.59;100287.44;5078980;27;45370;-46
2022/10/24 00:04:35;;;;;;;;;3.50;1.50;;;;;18.19;60.54;100270.88;5078915;27;45968;-51
2022/10/24 00:07:00;;;;;;;;;4.00;2.25;;;;;18.12;60.48;100286.22;5079079;27;45304;-54
2022/10/24 00:09:26;;;;;;;;;4.75;1.75;;;;;18.11;60.70;100295.31;5079004;27;46576;-52
2022/10/24 00:11:51;;;;;;;;;3.50;1.25;;;;;18.06;61.14;100292.41;5078859;27;45223;-48
2022/10/24 00:14:16;;;;;;;;;1.25;1.25;;;;;18.02;61.03;100286.59;5079088;27;45466;-52
2022/10/24 00:16:42;;;;;;;;;1.00;1.00;;;;;18.00;61.50;100274.41;5079102;27;45160;-54
2022/10/24 00:19:07;;;;;;;;;1.00;1.00;;;;;17.98;61.24;100285.34;5078581;27;45918;-50
2022/10/24 00:21:32;;;;;;;;;7.50;1.00;;;;;17.86;61.06;100263.59;5078639;28;45279;-55
2022/10/24 00:23:58;;;;;;;;;1.00;1.00;;;;;17.94;60.74;100274.16;5079046;27;45393;-46
2022/10/24 00:26:24;;;;;;;;;2.50;0.00;;;;;17.90;61.29;100274.78;5079098;27;45420;-49
2022/10/24 00:28:49;;;;;;;;;2.00;0.00;;;;;17.87;61.83;100273.38;5078440;27;46402;-52
2022/10/24 00:31:17;;;;;;;;;1.00;1.00;;;;;17.84;62.11;100278.31;5078606;27;45343;-44
2022/10/24 00:33:43;;;;;;;;;1.00;1.00;;;;;17.83;61.89;100282.06;5078753;27;45523;-53
2022/10/24 00:36:14;;;;;;;;;1.25;1.25;;;;;17.70;61.93;100255.94;5078721;27;45286;-49
2022/10/24 00:38:40;;;;;;;;;1.50;1.00;;;;;17.80;61.32;100277.06;5078314;27;45380;-53
2022/10/24 00:41:05;;;;;;;;;2.00;2.00;;;;;17.77;62.00;100282.84;5078349;27;45280;-52
2022/10/24 00:43:30;;;;;;;;;0.00;0.00;;;;;17.75;62.04;100283.06;5078351;27;45416;-48
2022/10/24 00:45:58;;;;;;;;;1.00;1.00;;;;;17.75;61.58;100277.69;5078507;27;45640;-54
2022/10/24 00:48:29;;;;;;;;;0.75;0.75;;;;;17.73;62.04;100276.19;5078190;28;46631;-54
2022/10/24 00:50:59;;;;;;;;;1.25;1.00;;;;;17.73;62.17;100281.56;5078521;27;45161;-54
2022/10/24 00:53:27;;;;;;;;;2.00;0.25;;;;;17.61;62.23;100257.13;5078186;27;45259;-54
2022/10/24 00:55:55;;;;;;;;;1.75;1.75;;;;;17.67;62.68;100273.28;5078328;27;45492;-52
2022/10/24 00:58:24;;;;;;;;;2.75;2.00;;;;;17.67;62.58;100280.53;5078007;28;45407;-49
2022/10/24 01:00:49;;;;;;;;;3.00;1.00;;;;;17.64;62.67;100281.78;5077824;27;45421;-52
2022/10/24 01:03:15;;;;;;;;;2.25;0.50;;;;;17.64;62.84;100289.84;5078251;27;45393;-50
2022/10/24 01:06:11;;;;;;;;;1.50;1.00;;;;;17.59;62.79;100295.00;5078283;27;45383;-53
2022/10/24 01:08:59;;;;;;;;;1.25;1.00;;;;;17.62;62.66;100301.84;5077969;27;45233;-44
2022/10/24 01:11:49;;;;;;;;;4.00;1.75;;;;;17.61;62.72;100313.63;5078021;27;45273;-52
2022/10/24 01:14:27;;;;;;;;;1.00;1.00;;;;;17.59;63.22;100311.13;5078030;27;45288;-51
2022/10/24 01:17:04;;;;;;;;;0.75;0.75;;;;;17.57;63.05;100323.97;5078358;27;45223;-52
2022/10/24 01:19:41;;;;;;;;;1.50;1.00;;;;;17.55;62.71;100327.88;5077416;28;46114;-51
2022/10/24 01:22:16;;;;;;;;;2.75;1.50;;;;;17.51;63.62;100340.91;5077747;27;45408;-52
2022/10/24 01:25:27;;;;;;;;;0.00;0.00;;;;;17.49;63.54;100337.59;5077891;27;45320;-54
2022/10/24 01:28:03;;;;;;;;;3.00;0.00;;;;;17.45;63.87;100337.19;5053930;27;45546;-47
2022/10/24 01:30:36;;;;;;;;;4.00;0.00;;;;;17.49;63.40;100345.66;5077383;28;46168;-51
2022/10/24 01:33:05;;;;;;;;;2.00;1.00;;;;;17.59;63.81;100351.47;5077588;27;45252;-45
2022/10/24 01:35:41;;;;;;;;;2.00;1.00;;;;;17.67;63.52;100362.06;5077573;28;45384;-47
2022/10/24 01:38:21;;;;;;;;;2.75;1.00;;;;;17.74;63.21;100372.00;5077618;27;45326;-54
2022/10/24 01:40:53;;;;;;;;;1.25;0.75;;;;;17.76;62.98;100353.84;5077393;27;45407;-54
2022/10/24 01:43:25;;;;;;;;;1.75;1.00;;;;;17.79;62.90;100358.81;5077014;27;45283;-49
2022/10/24 01:45:57;;;;;;;;;1.50;0.00;;;;;17.80;63.35;100352.41;5077472;27;45334;-54
2022/10/24 01:48:25;;;;;;;;;2.00;0.00;;;;;17.80;63.26;100357.78;5076666;28;45233;-48
2022/10/24 01:50:53;;;;;;;;;1.00;1.00;;;;;17.77;63.37;100352.81;5077311;27;46408;-54
2022/10/24 01:53:22;;;;;;;;;2.00;1.00;;;;;17.73;63.21;100349.66;5077376;27;45331;-53
2022/10/24 01:55:49;;;;;;;;;0.00;0.00;;;;;17.69;63.06;100378.81;5077254;27;45444;-52
2022/10/24 01:58:15;;;;;;;;;0.25;0.25;;;;;17.67;63.43;100353.16;5077513;27;45425;-49
2022/10/24 02:00:44;;;;;;;;;0.00;0.00;;;;;17.66;63.90;100341.59;5076932;28;46539;-43
2022/10/24 02:03:34;;;;;;;;;0.00;0.00;;;;;17.66;63.40;100340.75;5076946;27;45554;-46
2022/10/24 02:06:06;;;;;;;;;0.00;0.00;;;;;17.65;62.87;100345.28;5068369;28;45296;-52
2022/10/24 02:08:37;;;;;;;;;0.00;0.00;;;;;17.61;63.88;100349.44;5077415;27;45296;-53
2022/10/24 02:11:06;;;;;;;;;2.00;1.00;;;;;17.57;63.60;100345.50;5077058;27;45333;-50
2022/10/24 02:13:35;;;;;;;;;0.00;0.00;;;;;17.50;63.59;100341.94;5077148;27;45268;-44
2022/10/24 02:16:02;;;;;;;;;3.50;1.00;;;;;17.45;63.94;100333.66;5077212;27;45338;-51
2022/10/24 02:18:29;;;;;;;;;3.00;1.00;;;;;17.56;63.74;100334.91;5077143;27;45506;-45
2022/10/24 02:21:15;;;;;;;;;1.75;1.00;;;;;17.55;63.45;100339.47;5076902;27;45958;-51
2022/10/24 02:23:43;;;;;;;;;2.00;1.00;;;;;17.52;63.94;100337.19;5076932;27;45364;-53
2022/10/24 02:26:17;;;;;;;;;3.00;0.75;;;;;17.40;64.53;100322.66;5077124;27;45190;-52
2022/10/24 02:28:46;;;;;;;;;2.00;1.00;;;;;17.42;64.45;100315.22;5075895;28;45304;-44
2022/10/24 02:31:17;;;;;;;;;1.00;1.00;;;;;17.37;64.36;100307.78;5076699;27;45400;-48
2022/10/24 02:33:44;;;;;;;;;0.50;0.50;;;;;17.33;64.39;100303.81;5076791;27;45386;-52
2022/10/24 02:36:15;;;;;;;;;3.00;0.00;;;;;17.28;64.88;100305.47;5077028;27;45286;-51
2022/10/24 02:38:43;;;;;;;;;4.25;0.50;;;;;17.31;64.69;100299.66;5076977;27;45344;-50
2022/10/24 02:41:13;;;;;;;;;1.00;0.25;;;;;17.27;65.08;100303.78;5076767;27;45441;-55
2022/10/24 02:43:41;;;;;;;;;1.00;1.00;;;;;17.20;64.97;100293.84;5076356;27;45260;-49
2022/10/24 02:46:09;;;;;;;;;0.00;0.00;;;;;17.16;64.52;100299.84;5076678;27;45433;-52
2022/10/24 02:48:41;;;;;;;;;1.00;1.00;;;;;17.18;65.39;100298.59;5076751;27;45406;-53
2022/10/24 02:51:08;;;;;;;;;0.25;0.25;;;;;17.14;65.49;100301.88;5076565;27;47465;-52
2022/10/24 02:53:35;;;;;;;;;9.75;2.00;;;;;17.11;65.90;100292.38;5076461;27;45344;-48
2022/10/24 02:56:01;;;;;;;;;0.25;0.25;;;;;17.08;66.00;100300.84;5076578;27;45306;-55
2022/10/24 02:58:26;;;;;;;;;0.25;0.25;;;;;17.07;65.74;100301.03;5077531;27;45547;-51
2022/10/24 03:00:52;;;;;;;;;1.00;1.00;;;;;17.05;65.32;100289.66;5079760;27;45465;-51
2022/10/24 03:03:17;;;;;;;;;2.00;0.25;;;;;17.02;66.26;100290.03;5079992;27;45349;-47
2022/10/24 03:05:42;;;;;;;;;1.50;1.00;;;;;16.98;66.51;100292.31;5079865;27;45562;-48
2022/10/24 03:08:08;;;;;;;;;6.00;1.00;;;;;16.93;65.94;100294.75;5080194;27;45351;-52
2022/10/24 03:10:33;;;;;;;;;2.50;1.00;;;;;16.92;66.76;100290.41;5079639;27;45926;-53
2022/10/24 03:12:59;;;;;;;;;4.00;1.00;;;;;16.92;66.86;100293.94;5079887;27;45300;-51
2022/10/24 03:15:25;;;;;;;;;3.25;1.50;;;;;16.86;66.10;100307.34;5079927;27;45366;-49
2022/10/24 03:17:50;;;;;;;;;1.75;0.50;;;;;16.93;66.49;100310.88;5080062;27;45257;-51
2022/10/24 03:20:16;;;;;;;;;2.50;2.00;;;;;16.94;66.97;100315.25;5079589;27;45279;-51
2022/10/24 03:22:41;;;;;;;;;4.00;1.00;;;;;16.92;67.04;100302.00;5079737;27;45355;-48
2022/10/24 03:25:07;;;;;;;;;4.75;1.00;;;;;16.83;66.83;100316.63;5079810;27;45202;-49
2022/10/24 03:27:33;;;;;;;;;5.75;2.00;;;;;16.85;66.75;100309.19;5079870;27;45473;-47
2022/10/24 03:30:00;;;;;;;;;2.00;1.00;;;;;16.90;67.19;100322.03;5079398;27;46337;-48
2022/10/24 03:32:26;;;;;;;;;4.50;1.75;;;;;16.88;67.27;100327.59;5079446;28;45358;-52
2022/10/24 03:34:51;;;;;;;;;4.25;1.00;;;;;16.89;66.75;100323.03;5079502;27;45297;-52
2022/10/24 03:37:17;;;;;;;;;1.00;1.00;;;;;16.89;66.86;100333.78;5079695;27;45469;-52
2022/10/24 03:39:42;;;;;;;;;1.25;1.00;;;;;16.89;67.12;100336.47;5079388;27;45418;-54
2022/10/24 03:42:08;;;;;;;;;1.25;1.00;;;;;16.88;67.20;100349.09;5078716;27;45495;-52
2022/10/24 03:44:33;;;;;;;;;1.25;1.00;;;;;16.88;67.33;100340.19;5079360;27;45610;-46
2022/10/24 03:46:58;;;;;;;;;1.75;0.25;;;;;16.87;67.27;100350.13;5079526;27;45274;-52
2022/10/24 03:49:24;;;;;;;;;5.00;0.00;;;;;16.86;67.48;100334.22;5079080;27;45957;-51
2022/10/24 03:51:49;;;;;;;;;2.75;1.50;;;;;16.81;67.37;100342.88;5079235;28;45469;-52
2022/10/24 03:54:15;;;;;;;;;6.75;1.75;;;;;16.84;67.67;100355.88;5079189;27;45420;-53
2022/10/24 03:56:41;;;;;;;;;4.00;0.50;;;;;16.82;67.44;100355.25;5079225;27;45385;-51
2022/10/24 03:59:07;;;;;;;;;7.75;1.00;;;;;16.79;67.97;100349.44;5078933;27;45310;-46
2022/10/24 04:01:32;;;;;;;;;2.50;0.00;;;;;16.77;68.14;100357.72;5078983;28;45258;-51
2022/10/24 04:03:57;;;;;;;;;7.25;0.50;;;;;16.78;68.08;100371.97;5077615;28;45539;-49
2022/10/24 04:06:23;;;;;;;;;4.00;1.00;;;;;16.75;68.17;100375.03;5079224;27;45335;-51
2022/10/24 04:08:48;;;;;;;;;2.25;2.25;;;;;16.75;67.98;100375.88;5078810;27;47003;-54
2022/10/24 04:11:14;;;;;;;;;1.50;0.25;;;;;16.79;68.45;100374.44;5078302;27;45157;-49
2022/10/24 04:13:39;;;;;;;;;0.50;0.50;;;;;16.75;68.38;100366.97;5077682;28;45298;-47
2022/10/24 04:16:06;;;;;;;;;3.00;1.00;;;;;16.79;68.12;100381.69;5079051;27;45248;-45
2022/10/24 04:18:31;;;;;;;;;2.25;1.00;;;;;16.59;68.72;100355.47;5078810;27;46711;-51
2022/10/24 04:20:56;;;;;;;;;3.00;3.00;;;;;16.75;68.61;100386.59;5078764;27;47117;-43
2022/10/24 04:23:22;;;;;;;;;3.00;1.50;;;;;16.70;68.68;100392.53;5078846;27;45462;-45
2022/10/24 04:25:47;;;;;;;;;4.00;1.00;;;;;16.63;68.93;100375.53;5078949;27;45440;-45
2022/10/24 04:28:13;;;;;;;;;4.00;1.25;;;;;16.61;68.62;100401.78;5078466;28;46217;-48
2022/10/24 04:30:38;;;;;;;;;1.25;1.25;;;;;16.61;68.35;100401.78;5077166;28;45434;-44
2022/10/24 04:33:03;;;;;;;;;2.25;1.00;;;;;16.58;69.58;100402.16;5078798;27;45649;-46
2022/10/24 04:35:29;;;;;;;;;2.25;0.75;;;;;16.57;69.27;100399.66;5078872;27;45565;-52
2022/10/24 04:37:54;;;;;;;;;1.50;0.00;;;;;16.48;69.28;100388.25;5078464;27;45645;-47
2022/10/24 04:40:19;;;;;;;;;5.67;1.67;;;;;16.46;69.57;100398.31;5076968;28;45486;-47
2022/10/24 04:42:45;;;;;;;;;3.00;1.67;;;;;16.43;69.32;100399.56;5078352;27;45483;-50
2022/10/24 04:45:10;;;;;;;;;1.00;1.00;;;;;16.52;69.18;100419.06;5078691;27;45420;-44
2022/10/24 04:47:36;;;;;;;;;2.67;2.00;;;;;16.53;68.90;100425.25;5078028;27;45369;-52
2022/10/24 04:50:02;;;;;;;;;5.00;2.00;;;;;16.52;69.09;100429.78;5078105;27;45278;-50
2022/10/24 04:52:28;;;;;;;;;3.67;1.67;;;;;16.52;69.44;100434.31;5078309;27;45277;-50
2022/10/24 04:54:53;;;;;;;;;5.33;2.00;;;;;16.48;69.72;100433.06;5078268;27;45314;-45
2022/10/24 04:57:19;;;;;;;;;3.00;2.00;;;;;16.49;69.66;100430.16;5078669;27;46101;-50
2022/10/24 04:59:44;;;;;;;;;4.67;1.00;;;;;16.47;69.68;100426.84;5078484;27;45212;-52
2022/10/24 05:02:10;;;;;;;;;3.33;2.00;;;;;16.44;69.77;100436.13;5078680;27;45388;-45
2022/10/24 05:04:35;;;;;;;;;2.00;1.00;;;;;16.44;70.10;100432.59;5078696;27;45452;-48
2022/10/24 05:07:00;;;;;;;;;9.25;1.50;;;;;16.44;70.04;100440.66;5078098;27;46195;-44
2022/10/24 05:09:26;;;;;;;;;3.00;1.33;;;;;16.41;69.96;100438.34;5077974;27;45237;-50
2022/10/24 05:11:54;;;;;;;;;9.67;2.00;;;;;16.40;69.97;100450.13;5077838;27;45318;-44
2022/10/24 05:14:20;;;;;;;;;2.25;1.00;;;;;16.40;70.05;100464.38;5078278;27;45506;-45
2022/10/24 05:16:47;;;;;;;;;4.50;1.00;;;;;16.39;69.83;100451.97;5077568;27;46310;-51
2022/10/24 05:19:13;;;;;;;;;4.67;1.67;;;;;16.34;70.30;100470.50;5077349;27;45334;-53
2022/10/24 05:21:38;;;;;;;;;2.00;2.00;;;;;16.38;70.39;100462.88;5077269;28;45227;-49
2022/10/24 05:24:03;;;;;;;;;4.33;2.00;;;;;16.41;70.22;100479.44;5077328;27;45476;-44
2022/10/24 05:26:29;;;;;;;;;2.00;1.00;;;;;16.42;70.42;100481.09;5077533;27;46175;-51
2022/10/24 05:28:54;;;;;;;;;1.00;1.00;;;;;16.41;70.38;100479.44;5077973;27;45359;-50
2022/10/24 05:31:19;;;;;;;;;5.00;1.00;;;;;16.39;70.10;100481.50;5077695;27;45238;-53
2022/10/24 05:33:45;;;;;;;;;5.00;2.00;;;;;16.37;70.88;100482.72;5078174;27;45374;-50
2022/10/24 05:36:10;;;;;;;;;3.00;1.00;;;;;16.38;70.30;100489.72;5077295;27;45405;-48
2022/10/24 05:38:35;;;;;;;;;9.25;2.00;;;;;16.40;70.88;100498.44;5077486;27;45341;-53
2022/10/24 05:41:00;;;;;;;;;2.75;1.50;;;;;16.37;70.82;100488.06;5077826;27;45259;-44
2022/10/24 05:43:26;;;;;;;;;1.50;1.00;;;;;16.48;70.39;100498.31;5077357;27;45338;-49
2022/10/24 05:45:51;;;;;;;;;3.25;2.50;;;;;16.55;69.96;100501.88;5077202;27;47017;-47
2022/10/24 05:48:17;;;;;;;;;1.50;1.25;;;;;16.59;70.42;100486.22;5077420;27;45370;-54
2022/10/24 05:50:42;;;;;;;;;5.50;1.75;;;;;16.63;70.25;100498.25;5077495;27;45592;-46
2022/10/24 05:53:08;;;;;;;;;2.33;1.33;;;;;16.66;69.18;100503.25;5077589;27;45478;-54
2022/10/24 05:55:35;;;;;;;;;1.75;1.00;;;;;16.56;70.05;100506.25;5077064;27;46873;-45
2022/10/24 05:58:00;;;;;;;;;5.75;2.00;;;;;16.54;69.80;100508.28;5077172;27;45290;-52
2022/10/24 06:00:26;;;;;;;;;2.00;2.00;;;;;16.48;70.51;100495.63;5077355;27;45314;-47
2022/10/24 06:02:51;;;;;;;;;8.00;1.00;;;;;16.50;70.41;100503.50;5077445;27;45519;-52
2022/10/24 06:05:17;;;;;;;;;3.75;1.00;;;;;16.47;70.13;100502.00;5076926;27;47082;-54
2022/10/24 06:07:43;;;;;;;;;3.75;1.50;;;;;16.52;70.32;100501.44;5076925;27;45184;-50
2022/10/24 06:10:09;;;;;;;;;5.00;1.00;;;;;16.56;70.54;100506.25;5077230;27;45211;-53
2022/10/24 06:12:35;;;;;;;;;5.67;3.00;;;;;16.60;70.32;100502.16;5077310;27;45186;-48
2022/10/24 06:15:01;;;;;;;;;2.00;2.00;;;;;16.67;70.15;100508.41;5076782;28;45528;-49
2022/10/24 06:17:26;;;;;;;;;5.50;3.00;;;;;16.69;69.92;100514.44;5076806;27;45348;-53
2022/10/24 06:19:52;;;;;;;;;4.00;1.75;;;;;16.71;69.91;100524.97;5076964;27;45319;-53
2022/10/24 06:22:18;;;;;;;;;3.75;0.00;;;;;16.74;69.59;100513.88;5077311;27;45342;-47
2022/10/24 06:24:43;;;;;;;;;3.00;1.00;;;;;16.60;69.39;100498.63;5076676;27;47270;-50
2022/10/24 06:27:09;;;;;;;;;3.00;1.00;;;;;16.56;69.96;100511.63;5076510;27;45350;-52
2022/10/24 06:29:34;;;;;;;;;2.33;2.00;;;;;16.59;70.05;100513.06;5076935;27;45774;-53
2022/10/24 06:32:00;;;;;;;;;6.67;1.33;;;;;16.53;70.05;100512.00;5092701;27;45495;-52
2022/10/24 06:34:26;;;;;;;;;5.00;1.75;;;;;16.48;70.02;100506.38;5079080;27;46249;-46
2022/10/24 06:36:51;;;;;;;;;5.33;3.00;;;;;16.44;70.12;100537.31;5080166;27;45243;-51
2022/10/24 06:39:16;;;;;;;;;5.00;2.00;;;;;16.39;70.31;100521.78;5080347;27;45296;-54
2022/10/24 06:41:42;;;;;;;;;4.33;1.00;;;;;16.38;70.09;100530.00;5080582;27;45330;-49
2022/10/24 06:44:07;;;;;;;;;1.75;0.00;;;;;16.37;70.08;100531.03;5079892;27;45453;-54
2022/10/24 06:46:32;;;;;;;;;3.50;2.00;;;;;16.35;70.25;100533.06;5080082;27;45475;-52
2022/10/24 06:48:58;;;;;;;;;3.75;2.00;;;;;16.32;70.25;100533.47;5080224;27;45273;-54
2022/10/24 06:51:24;;;;;;;;;5.67;2.00;;;;;16.32;69.92;100544.19;5080335;27;45292;-43
2022/10/24 06:53:50;;;;;;;;;3.67;2.67;;;;;16.27;70.49;100536.72;5079873;27;46694;-53
2022/10/24 06:56:16;;;;;;;;;2.00;1.00;;;;;16.31;70.14;100550.59;5080080;27;45445;-51
2022/10/24 06:58:42;;;;;;;;;3.00;1.00;;;;;16.29;70.56;100542.72;5080128;27;45238;-51
2022/10/24 07:01:14;;;;;;;;;5.00;3.00;;;;;16.27;70.48;100536.72;5080107;27;45471;-54
2022/10/24 07:03:39;;;;;;;;;3.33;2.00;;;;;16.20;69.94;100523.19;5079715;27;45619;-52
2022/10/24 07:06:13;;;;;;;;;8.33;2.00;;;;;16.28;70.72;100541.06;5079587;27;45238;-52
2022/10/24 07:08:39;;;;;;;;;7.67;3.67;;;;;16.29;70.63;100540.03;5079885;27;45317;-43
2022/10/24 07:11:04;;;;;;;;;9.33;5.00;;;;;16.32;70.61;100549.56;5080181;28;45282;-51
2022/10/24 07:13:30;;;;;;;;;2.33;2.00;;;;;16.35;70.44;100559.91;5079300;27;46704;-52
2022/10/24 07:15:55;;;;;;;;;6.00;2.67;;;;;16.35;70.83;100557.22;5079695;27;45500;-54
2022/10/24 07:18:21;;;;;;;;;4.33;2.00;;;;;16.35;70.16;100562.59;5079972;27;45377;-47
2022/10/24 07:20:46;;;;;;;;;2.33;1.67;;;;;16.35;70.75;100571.50;5080009;27;45421;-53
2022/10/24 07:23:12;;;;;;;;;5.00;2.33;;;;;16.46;70.33;100586.28;5079294;27;45344;-51
2022/10/24 07:25:39;;;;;;;;;4.33;2.00;;;;;16.51;70.35;100589.22;5079565;27;45473;-51
2022/10/24 07:28:05;;;;;;;;;4.33;3.33;;;;;16.56;69.99;100596.69;5078045;27;45485;-53
2022/10/24 07:30:31;;;;;;;;;9.33;3.33;;;;;16.62;69.63;100587.91;5079438;27;45405;-44
2022/10/24 07:32:56;;;;;;;;;2.67;2.00;;;;;16.94;68.81;100592.00;5079111;27;46071;-53
2022/10/24 07:35:22;;;;;;;;;3.00;1.33;;;;;17.13;68.30;100610.16;5078839;27;45442;-52
2022/10/24 07:37:48;;;;;;;;;4.33;2.00;;;;;17.23;68.08;100604.44;5079415;27;45340;-48
2022/10/24 07:40:13;;;;;;;;;4.00;2.00;;;;;17.31;67.80;100598.09;5079235;27;45354;-52
2022/10/24 07:42:39;;;;;;;;;3.00;2.00;;;;;17.40;67.28;100603.16;5078880;27;45287;-52
2022/10/24 07:45:06;;;;;;;;;3.25;2.50;;;;;17.48;67.00;100598.63;5077562;27;45322;-45
2022/10/24 07:47:31;;;;;;;;;4.50;1.00;;;;;17.55;66.65;100605.75;5078776;27;45244;-50
2022/10/24 07:49:56;;;;;;;;;10.75;2.25;;;;;17.58;66.72;100616.13;5079518;27;45458;-50
2022/10/24 07:52:22;;;;;;;;;3.00;2.00;;;;;17.65;66.59;100614.28;5078484;27;45981;-51
2022/10/24 07:54:47;;;;;;;;;5.50;1.00;;;;;17.77;66.21;100622.69;5078789;27;45395;-44
2022/10/24 07:57:12;;;;;;;;;4.00;1.00;;;;;17.90;65.88;100624.63;5079002;27;45538;-51
2022/10/24 07:59:38;;;;;;;;;3.00;2.00;;;;;17.96;65.59;100629.22;5078790;27;45472;-47
2022/10/24 08:02:03;;;;;;;;;5.25;2.00;;;;;17.92;65.78;100623.41;5078672;27;45421;-45
2022/10/24 08:04:29;;;;;;;;;5.00;2.25;;;;;18.04;65.50;100637.16;5078808;27;45345;-51
2022/10/24 08:06:55;;;;;;;;;4.25;2.00;;;;;18.04;65.59;100630.94;5078523;27;45335;-49
2022/10/24 08:09:21;;;;;;;;;3.75;3.25;;;;;18.10;65.50;100644.41;5078897;27;45460;-51
2022/10/24 08:11:46;;;;;;;;;4.75;3.00;;;;;18.01;65.51;100642.91;5078578;27;47055;-46
2022/10/24 08:14:11;;;;;;;;;4.50;2.00;;;;;18.09;65.47;100640.06;5078493;27;45419;-48
2022/10/24 08:16:37;;;;;;;;;5.75;3.25;;;;;18.09;65.56;100644.63;5078697;27;45763;-52
2022/10/24 08:19:02;;;;;;;;;4.50;2.00;;;;;18.02;65.78;100646.44;5078847;27;45432;-50
2022/10/24 08:21:30;;;;;;;;;4.00;2.00;;;;;17.92;66.17;100634.19;5078225;27;45272;-54
2022/10/24 08:23:56;;;;;;;;;3.50;1.75;;;;;17.92;66.03;100628.78;5058550;27;45413;-48
2022/10/24 08:26:23;;;;;;;;;4.25;1.50;;;;;17.97;66.06;100636.28;5058223;28;45448;-49
2022/10/24 08:28:50;;;;;;;;;7.00;1.00;;;;;17.86;65.87;100640.31;5058386;28;45335;-50
2022/10/24 08:31:18;;;;;;;;;7.75;1.50;;;;;17.90;66.18;100652.38;5058060;28;45361;-52
2022/10/24 08:33:44;;;;;;;;;5.00;2.25;;;;;17.97;65.60;100656.97;5058049;28;45537;-44
2022/10/24 08:36:20;;;;;;;;;1.50;1.50;;;;;18.04;65.33;100649.78;5058077;28;45456;-52
2022/10/24 08:38:45;;;;;;;;;4.50;1.50;;;;;18.07;65.27;100660.13;5058234;28;45436;-52
2022/10/24 08:41:26;;;;;;;;;3.25;1.00;;;;;18.04;65.29;100663.25;5057607;28;46758;-49
2022/10/24 08:43:53;;;;;;;;;4.00;2.00;;;;;18.05;65.21;100657.66;5057655;28;45292;-50
2022/10/24 08:46:47;;;;;;;;;4.75;2.00;;;;;18.09;64.89;100663.47;5057968;28;45287;-52
2022/10/24 08:49:39;;;;;;;;;7.00;2.00;;;;;17.71;64.76;100596.53;5057873;28;45355;-54
2022/10/24 08:52:42;;;;;;;;;4.25;3.00;;;;;18.16;64.89;100661.63;5057285;28;46207;-51
2022/10/24 08:55:19;;;;;;;;;5.00;3.25;;;;;18.12;64.62;100647.75;5057369;28;45274;-46
2022/10/24 08:57:50;;;;;;;;;5.00;2.25;;;;;18.29;64.40;100668.97;5057430;28;45387;-48
2022/10/24 09:00:25;;;;;;;;;8.00;2.00;;;;;18.35;64.28;100668.16;5057815;28;45372;-50
2022/10/24 09:02:58;;;;;;;;;2.75;2.00;;;;;18.40;64.24;100671.91;5057433;28;46318;-50
2022/10/24 09:05:39;;;;;;;;;1.00;1.00;;;;;18.40;64.16;100674.59;5057310;28;45327;-46
2022/10/24 09:08:32;;;;;;;;;6.25;2.75;;;;;18.49;64.10;100655.59;5057094;28;45309;-51
2022/10/24 09:11:04;;;;;;;;;4.50;1.00;;;;;18.95;63.24;100670.09;5056274;28;45675;-51
2022/10/24 09:13:34;;;;;;;;;4.00;1.25;;;;;19.52;61.76;100670.59;5057097;28;46184;-51
2022/10/24 09:16:00;;;;;;;;;5.75;2.75;;;;;20.62;58.92;100662.75;5057300;28;45477;-53
2022/10/24 09:18:31;;;;;;;;;6.00;1.25;;;;;21.21;57.48;100663.47;5057183;28;45493;-53
2022/10/24 09:20:58;;;;;;;;;2.00;2.00;;;;;22.63;53.47;100667.97;5065430;28;45359;-51
2022/10/24 09:23:25;;;;;;;;;2.25;2.25;;;;;24.24;50.30;100659.81;5077178;27;45459;-48
2022/10/24 09:25:53;;;;;;;;;3.00;3.00;;;;;24.12;49.45;100662.56;5077154;27;45475;-41
2022/10/24 09:28:19;;;;;;;;;2.60;1.00;;;;;24.51;49.28;100678.34;5077292;27;45422;-50
2022/10/24 09:30:45;;;;;;;;;3.00;2.80;;;;;25.30;46.19;100656.75;5077621;27;45484;-46
2022/10/24 09:33:33;;;;;;;;;1.50;1.50;;;;;25.83;45.76;100663.59;5076967;27;47169;-45
2022/10/24 09:36:02;;;;;;;;;6.20;2.40;;;;;25.34;47.01;100655.19;5076946;27;45287;-54
2022/10/24 09:38:36;;;;;;;;;2.60;1.60;;;;;24.69;47.60;100671.91;5077432;28;45323;-55
2022/10/24 09:41:23;;;;;;;;;3.60;2.00;;;;;23.82;50.13;100684.41;5077414;27;45456;-50
2022/10/24 09:43:52;;;;;;;;;3.00;2.00;;;;;23.36;51.04;100666.16;5077043;27;46209;-53
2022/10/24 09:46:23;;;;;;;;;4.20;1.00;;;;;22.78;51.38;100688.44;5077106;27;45455;-54
2022/10/24 09:49:13;;;;;;;;;3.20;3.00;;;;;22.14;53.44;100693.34;5077218;28;45425;-49
2022/10/24 09:51:48;;;;;;;;;8.60;4.00;;;;;21.90;54.12;100697.72;5076971;28;45455;-54
2022/10/24 09:54:19;;;;;;;;;8.00;2.80;;;;;21.71;54.74;100707.69;5077068;27;46356;-53
2022/10/24 09:56:46;;;;;;;;;7.40;2.00;;;;;21.34;54.84;100698.59;5077185;27;45287;-53
2022/10/24 09:59:32;;;;;;;;;9.60;3.00;;;;;21.02;56.23;100706.63;5077239;27;45343;-52
2022/10/24 10:02:18;;;;;;;;;1.75;1.75;;;;;20.87;56.99;100692.59;5077163;27;45403;-49
2022/10/24 10:04:46;;;;;;;;;6.80;2.00;;;;;20.73;56.82;100705.34;5076657;27;47092;-51
2022/10/24 10:07:17;;;;;;;;;7.00;3.20;;;;;21.15;56.53;100689.50;5076994;28;45441;-53
2022/10/24 10:09:51;;;;;;;;;3.40;3.00;;;;;21.46;55.64;100704.13;5076278;27;45213;-51
2022/10/24 10:12:28;;;;;;;;;4.50;2.75;;;;;21.56;55.53;100718.81;5077028;27;45173;-52
2022/10/24 10:14:54;;;;;;;;;8.40;2.00;;;;;21.43;55.50;100714.31;5076252;27;45502;-44
2022/10/24 10:17:26;;;;;;;;;2.75;2.75;;;;;21.33;55.52;100718.56;5060476;27;45518;-49
2022/10/24 10:19:54;;;;;;;;;4.80;2.00;;;;;21.17;56.15;100711.78;5056701;28;45445;-53
2022/10/24 10:22:22;;;;;;;;;6.40;2.80;;;;;21.40;55.83;100720.16;5056803;28;45327;-54
2022/10/24 10:24:48;;;;;;;;;2.00;2.00;;;;;21.71;54.27;100707.69;5056754;28;46103;-49
2022/10/24 10:27:24;;;;;;;;;6.75;3.75;;;;;22.07;53.71;100725.06;5056229;28;45445;-54
2022/10/24 10:30:13;;;;;;;;;2.60;1.00;;;;;21.80;54.10;100728.00;5056346;28;45258;-51
2022/10/24 10:33:16;;;;;;;;;1.00;1.00;;;;;21.70;54.61;100716.84;5056589;28;45482;-54
2022/10/24 10:35:47;;;;;;;;;2.40;2.00;;;;;21.91;53.96;100715.59;5056250;28;45378;-52
2022/10/24 10:38:52;;;;;;;;;2.80;2.80;;;;;21.75;54.29;100708.06;5054786;28;45780;-45
2022/10/24 10:41:46;;;;;;;;;2.40;1.60;;;;;22.02;53.86;100712.19;5056313;28;45609;-53
2022/10/24 10:44:32;;;;;;;;;7.50;4.25;;;;;22.19;53.18;100730.59;5056311;28;45376;-54
2022/10/24 10:47:21;;;;;;;;;2.80;1.40;;;;;23.11;51.55;100724.13;5055944;28;47429;-49
2022/10/24 10:49:55;;;;;;;;;5.20;2.00;;;;;22.90;51.26;100717.31;5055766;28;45224;-54
2022/10/24 10:52:38;;;;;;;;;4.40;2.40;;;;;23.14;51.25;100717.41;5056151;28;45328;-43
2022/10/24 10:55:34;;;;;;;;;3.80;1.60;;;;;24.52;49.95;100728.94;5056363;28;45516;-50
2022/10/24 10:58:10;;;;;;;;;5.80;1.00;;;;;25.11;47.06;100724.19;5055660;28;46146;-55
2022/10/24 11:01:00;;;;;;;;;2.40;1.00;;;;;25.07;47.38;100715.66;5055967;28;45431;-44
2022/10/24 11:03:35;;;;;;;;;5.00;3.40;;;;;25.26;46.10;100712.75;5056055;28;45311;-49
2022/10/24 11:06:08;;;;;;;;;3.20;2.00;;;;;24.72;48.04;100717.66;5056330;28;46176;-43
2022/10/24 11:08:42;;;;;;;;;4.80;3.40;;;;;24.98;47.51;100724.44;5055519;28;47162;-52
2022/10/24 11:11:13;;;;;;;;;2.80;2.80;;;;;24.60;49.36;100714.97;5055714;28;45209;-54
2022/10/24 11:13:44;;;;;;;;;2.80;2.00;;;;;24.13;47.55;100729.41;5055994;28;45186;-47
2022/10/24 11:16:18;;;;;;;;;7.80;3.00;;;;;24.58;47.56;100711.69;5055835;28;45436;-54
2022/10/24 11:18:49;;;;;;;;;2.80;2.80;;;;;24.80;47.42;100720.00;5055597;28;46107;-49
2022/10/24 11:21:17;;;;;;;;;5.00;2.00;;;;;24.28;47.66;100731.69;5057365;28;45300;-45
2022/10/24 11:23:49;;;;;;;;;2.80;1.00;;;;;23.62;48.39;100722.72;5059282;28;45237;-48
2022/10/24 11:26:42;;;;;;;;;1.60;1.20;;;;;22.90;50.63;100730.88;5059188;28;45315;-53
2022/10/24 11:29:14;;;;;;;;;2.60;1.80;;;;;22.41;51.13;100726.41;5058480;28;45323;-54
2022/10/24 11:31:46;;;;;;;;;3.80;1.20;;;;;22.12;52.39;100736.94;5059094;28;45421;-54
2022/10/24 11:34:20;;;;;;;;;3.60;2.00;;;;;22.03;52.78;100723.84;5059226;28;45411;-53
2022/10/24 11:36:52;;;;;;;;;3.60;2.00;;;;;22.35;52.56;100738.97;5059221;28;45231;-52